0VA9 weather

Handy Strip
Gloucester Court House, Virginia, United States

Public forecast

Using degrees Fahrenheit for public forecast. Weather courtesy of forecast.io.

Closest aviation weather report (METAR) to Handy Strip

Closest report is Middle Peninsula Regional Airport, 15.5 nm (28.6 km) WNW. Retrieved 2020/01/24 03:35 UTC (1 hour ago):

KFYJ 240335Z AUTO 00000KT 10SM CLR M01/M02 A3033 RMK AO1 T10101021

Closest aviation forecast (TAF) to Handy Strip

Closest forecast is Newport News Williamsburg International Airport, 19.0 nm (35.3 km) S. Retrieved 2020-01-24 00:27 UTC (4 hours ago):

TAF KPHF 232324Z 2400/2424 05005KT P6SM BKN150 FM241200 05006KT P6SM SCT025 BKN050 FM241700 08010KT P6SM BKN050